createdAt,value
2024-02-14T00:00:29.694Z,1002.62
2024-02-14T00:01:29.745Z,1002.63
2024-02-14T00:02:29.716Z,1002.65
2024-02-14T00:03:29.672Z,1002.62
2024-02-14T00:04:29.709Z,1002.64
2024-02-14T00:05:29.678Z,1002.63
2024-02-14T00:06:29.684Z,1002.62
2024-02-14T00:07:29.642Z,1002.63
2024-02-14T00:08:29.629Z,1002.58
2024-02-14T00:09:29.630Z,1002.61
2024-02-14T00:10:29.612Z,1002.62
2024-02-14T00:11:29.599Z,1002.53
2024-02-14T00:12:29.584Z,1002.61
2024-02-14T00:13:29.582Z,1002.61
2024-02-14T00:14:29.607Z,1002.57
2024-02-14T00:15:29.638Z,1002.57
2024-02-14T00:16:29.584Z,1002.56
2024-02-14T00:17:29.653Z,1002.50
2024-02-14T00:18:29.692Z,1002.52
2024-02-14T00:19:29.539Z,1002.51
2024-02-14T00:20:29.570Z,1002.47
2024-02-14T00:21:29.493Z,1002.43
2024-02-14T00:22:29.456Z,1002.40
2024-02-14T00:23:29.459Z,1002.44
2024-02-14T00:24:29.453Z,1002.37
2024-02-14T00:25:29.422Z,1002.39
2024-02-14T00:26:29.490Z,1002.43
2024-02-14T00:27:29.409Z,1002.40
2024-02-14T00:28:29.405Z,1002.38
2024-02-14T00:29:29.452Z,1002.36
2024-02-14T00:30:30.981Z,1002.37
2024-02-14T00:31:29.386Z,1002.35
2024-02-14T00:32:29.511Z,1002.40
2024-02-14T00:33:29.575Z,1002.40
2024-02-14T00:34:29.493Z,1002.43
2024-02-14T00:35:29.423Z,1002.42
2024-02-14T00:36:29.316Z,1002.44
2024-02-14T00:37:29.311Z,1002.40
2024-02-14T00:38:29.319Z,1002.39
2024-02-14T00:39:29.271Z,1002.37
2024-02-14T00:40:29.286Z,1002.39
2024-02-14T00:41:29.329Z,1002.35
2024-02-14T00:42:29.260Z,1002.36
2024-02-14T00:43:29.251Z,1002.35
2024-02-14T00:44:29.300Z,1002.36
2024-02-14T00:45:29.205Z,1002.29
2024-02-14T00:46:29.199Z,1002.34
2024-02-14T00:47:29.383Z,1002.36
2024-02-14T00:48:29.346Z,1002.33
2024-02-14T00:49:29.276Z,1002.31
2024-02-14T00:50:29.270Z,1002.31
2024-02-14T00:51:29.152Z,1002.27
2024-02-14T00:52:29.148Z,1002.29
2024-02-14T00:53:29.225Z,1002.26
2024-02-14T00:54:29.131Z,1002.26
2024-02-14T00:55:29.118Z,1002.24
2024-02-14T00:56:29.184Z,1002.23
2024-02-14T00:57:29.086Z,1002.28
2024-02-14T00:58:29.128Z,1002.23
2024-02-14T00:59:29.159Z,1002.28
2024-02-14T01:00:29.064Z,1002.28
2024-02-14T01:01:29.049Z,1002.27
2024-02-14T01:02:29.137Z,1002.22
2024-02-14T01:03:29.055Z,1002.16
2024-02-14T01:04:29.029Z,1002.10
2024-02-14T01:05:29.217Z,1002.12
2024-02-14T01:06:29.025Z,1002.07
2024-02-14T01:07:29.010Z,1002.13
2024-02-14T01:08:28.956Z,1002.11
2024-02-14T01:09:28.961Z,1002.11
2024-02-14T01:10:28.954Z,1002.14
2024-02-14T01:11:28.975Z,1002.14
2024-02-14T01:12:28.915Z,1002.11
2024-02-14T01:13:28.910Z,1002.09
2024-02-14T01:14:28.990Z,1002.09
2024-02-14T01:15:28.898Z,1002.07
2024-02-14T01:16:28.868Z,1002.08
2024-02-14T01:17:28.934Z,1002.11
2024-02-14T01:18:28.921Z,1002.06
2024-02-14T01:19:28.869Z,1002.04
2024-02-14T01:20:28.878Z,1002.04
2024-02-14T01:21:28.819Z,1002.06
2024-02-14T01:22:28.821Z,1002.02
2024-02-14T01:23:28.878Z,1002.02
2024-02-14T01:24:28.784Z,1001.99
2024-02-14T01:25:28.768Z,1002.00
2024-02-14T01:26:28.799Z,1001.98
2024-02-14T01:27:28.765Z,1002.05
2024-02-14T01:28:28.732Z,1001.98
2024-02-14T01:29:28.746Z,1002.01
2024-02-14T01:30:28.770Z,1001.98
2024-02-14T01:31:28.756Z,1001.96
2024-02-14T01:32:28.769Z,1001.95
2024-02-14T01:33:28.832Z,1001.92
2024-02-14T01:34:28.734Z,1001.91
2024-02-14T01:35:28.710Z,1001.95
2024-02-14T01:36:28.662Z,1001.92
2024-02-14T01:37:28.688Z,1001.89
2024-02-14T01:38:28.647Z,1001.91
2024-02-14T01:39:28.653Z,1001.90
2024-02-14T01:40:28.634Z,1001.88
2024-02-14T01:41:28.652Z,1001.92
2024-02-14T01:42:28.596Z,1001.81
2024-02-14T01:43:28.585Z,1001.85
2024-02-14T01:44:28.648Z,1001.81
2024-02-14T01:45:28.561Z,1001.84
2024-02-14T01:46:28.583Z,1001.78
2024-02-14T01:47:28.643Z,1001.74
2024-02-14T01:48:28.712Z,1001.72
2024-02-14T01:49:28.598Z,1001.75
2024-02-14T01:50:28.551Z,1001.73
2024-02-14T01:51:28.500Z,1001.69
2024-02-14T01:52:28.511Z,1001.73
2024-02-14T01:53:28.551Z,1001.71
2024-02-14T01:54:28.454Z,1001.74
2024-02-14T01:55:28.451Z,1001.70
2024-02-14T01:56:28.503Z,1001.70
2024-02-14T01:57:28.458Z,1001.69
2024-02-14T01:58:28.426Z,1001.66
2024-02-14T01:59:28.468Z,1001.65
2024-02-14T02:00:28.404Z,1001.59
2024-02-14T02:01:28.411Z,1001.61
2024-02-14T02:02:28.439Z,1001.64
2024-02-14T02:03:28.509Z,1001.58
2024-02-14T02:04:28.356Z,1001.58
2024-02-14T02:05:28.439Z,1001.58
2024-02-14T02:06:28.357Z,1001.55
2024-02-14T02:07:28.332Z,1001.58
2024-02-14T02:08:28.353Z,1001.51
2024-02-14T02:09:28.314Z,1001.52
2024-02-14T02:10:28.342Z,1001.59
2024-02-14T02:11:28.315Z,1001.54
2024-02-14T02:12:28.276Z,1001.53
2024-02-14T02:13:28.421Z,1001.49
2024-02-14T02:14:28.298Z,1001.50
2024-02-14T02:15:28.239Z,1001.53
2024-02-14T02:16:28.258Z,1001.48
2024-02-14T02:17:28.314Z,1001.47
2024-02-14T02:18:28.286Z,1001.44
2024-02-14T02:19:28.312Z,1001.49
2024-02-14T02:20:28.279Z,1001.52
2024-02-14T02:21:28.219Z,1001.46
2024-02-14T02:22:28.211Z,1001.46
2024-02-14T02:23:28.185Z,1001.49
2024-02-14T02:24:28.159Z,1001.50
2024-02-14T02:25:28.360Z,1001.48
2024-02-14T02:26:28.122Z,1001.47
2024-02-14T02:27:28.117Z,1001.45
2024-02-14T02:28:28.111Z,1001.49
2024-02-14T02:29:28.118Z,1001.46
2024-02-14T02:30:28.073Z,1001.44
2024-02-14T02:31:28.065Z,1001.47
2024-02-14T02:32:28.152Z,1001.41
2024-02-14T02:33:28.201Z,1001.42
2024-02-14T02:34:28.171Z,1001.43
2024-02-14T02:35:28.099Z,1001.42
2024-02-14T02:36:28.022Z,1001.42
2024-02-14T02:37:28.484Z,1001.41
2024-02-14T02:38:28.062Z,1001.38
2024-02-14T02:39:28.599Z,1001.42
2024-02-14T02:40:27.981Z,1001.38
2024-02-14T02:41:27.990Z,1001.38
2024-02-14T02:42:27.956Z,1001.40
2024-02-14T02:43:28.007Z,1001.38
2024-02-14T02:44:27.954Z,1001.35
2024-02-14T02:45:27.917Z,1001.43
2024-02-14T02:46:27.913Z,1001.35
2024-02-14T02:47:27.945Z,1001.37
2024-02-14T02:48:34.517Z,1001.37
2024-02-14T02:49:27.894Z,1001.36
2024-02-14T02:50:27.927Z,1001.42
2024-02-14T02:51:27.843Z,1001.38
2024-02-14T02:52:27.833Z,1001.35
2024-02-14T02:53:27.915Z,1001.36
2024-02-14T02:54:27.838Z,1001.31
2024-02-14T02:55:27.900Z,1001.34
2024-02-14T02:56:27.816Z,1001.34
2024-02-14T02:57:27.815Z,1001.35
2024-02-14T02:58:27.811Z,1001.30
2024-02-14T02:59:27.803Z,1001.34
2024-02-14T03:00:27.779Z,1001.27
2024-02-14T03:01:27.783Z,1001.31
2024-02-14T03:02:27.797Z,1001.34
2024-02-14T03:03:27.725Z,1001.32
2024-02-14T03:04:41.312Z,1001.29
2024-02-14T03:05:27.768Z,1001.32
2024-02-14T03:06:27.733Z,1001.32
2024-02-14T03:07:27.683Z,1001.28
2024-02-14T03:08:27.710Z,1001.33
2024-02-14T03:09:27.654Z,1001.30
2024-02-14T03:10:27.654Z,1001.33
2024-02-14T03:11:27.644Z,1001.30
2024-02-14T03:12:27.624Z,1001.27
2024-02-14T03:13:27.747Z,1001.32
2024-02-14T03:14:27.603Z,1001.22
2024-02-14T03:15:27.651Z,1001.25
2024-02-14T03:16:27.586Z,1001.21
2024-02-14T03:17:27.688Z,1001.25
2024-02-14T03:18:27.622Z,1001.20
2024-02-14T03:19:27.565Z,1001.22
2024-02-14T03:20:27.643Z,1001.23
2024-02-14T03:21:27.524Z,1001.24
2024-02-14T03:22:27.529Z,1001.23
2024-02-14T03:23:27.517Z,1001.26
2024-02-14T03:24:27.527Z,1001.24
2024-02-14T03:25:27.539Z,1001.18
2024-02-14T03:26:27.520Z,1001.16
2024-02-14T03:27:27.481Z,1001.16
2024-02-14T03:28:27.471Z,1001.16
2024-02-14T03:29:27.497Z,1001.19
2024-02-14T03:30:27.454Z,1001.21
2024-02-14T03:31:27.420Z,1001.20
2024-02-14T03:32:27.465Z,1001.21
2024-02-14T03:33:27.494Z,1001.18
2024-02-14T03:34:27.473Z,1001.18
2024-02-14T03:35:27.405Z,1001.14
2024-02-14T03:36:27.364Z,1001.14
2024-02-14T03:37:27.359Z,1001.14
2024-02-14T03:38:27.443Z,1001.16
2024-02-14T03:39:27.347Z,1001.17
2024-02-14T03:40:27.319Z,1001.15
2024-02-14T03:41:27.339Z,1001.15
2024-02-14T03:42:27.320Z,1001.20
2024-02-14T03:43:27.291Z,1001.18
2024-02-14T03:44:27.567Z,1001.17
2024-02-14T03:45:27.280Z,1001.22
2024-02-14T03:46:27.293Z,1001.18
2024-02-14T03:47:27.335Z,1001.18
2024-02-14T03:48:27.437Z,1001.16
2024-02-14T03:49:27.269Z,1001.20
2024-02-14T03:50:27.254Z,1001.21
2024-02-14T03:51:27.216Z,1001.21
2024-02-14T03:52:27.200Z,1001.20
2024-02-14T03:53:27.229Z,1001.17
2024-02-14T03:54:27.217Z,1001.23
2024-02-14T03:55:27.156Z,1001.24
2024-02-14T03:56:27.198Z,1001.22
2024-02-14T03:57:27.212Z,1001.15
2024-02-14T03:58:27.144Z,1001.18
2024-02-14T03:59:27.168Z,1001.25
2024-02-14T04:00:27.148Z,1001.26
2024-02-14T04:01:27.155Z,1001.25
2024-02-14T04:02:27.143Z,1001.25
2024-02-14T04:03:27.145Z,1001.28
2024-02-14T04:04:27.109Z,1001.27
2024-02-14T04:05:27.133Z,1001.27
2024-02-14T04:06:27.098Z,1001.23
2024-02-14T04:07:27.057Z,1001.26
2024-02-14T04:08:27.126Z,1001.28
2024-02-14T04:09:27.127Z,1001.31
2024-02-14T04:10:27.014Z,1001.28
2024-02-14T04:11:27.035Z,1001.27
2024-02-14T04:12:27.002Z,1001.27
2024-02-14T04:13:26.967Z,1001.34
2024-02-14T04:14:26.972Z,1001.33
2024-02-14T04:15:26.973Z,1001.39
2024-02-14T04:16:26.972Z,1001.32
2024-02-14T04:17:27.012Z,1001.39
2024-02-14T04:18:27.069Z,1001.45
2024-02-14T04:19:27.152Z,1001.40
2024-02-14T04:20:26.937Z,1001.34
2024-02-14T04:21:26.910Z,1001.39
2024-02-14T04:22:26.891Z,1001.38
2024-02-14T04:23:26.936Z,1001.38
2024-02-14T04:24:26.871Z,1001.42
2024-02-14T04:25:26.889Z,1001.39
2024-02-14T04:26:26.859Z,1001.43
2024-02-14T04:27:26.845Z,1001.40
2024-02-14T04:28:26.824Z,1001.44
2024-02-14T04:29:26.823Z,1001.42
2024-02-14T04:30:26.809Z,1001.41
2024-02-14T04:31:26.788Z,1001.40
2024-02-14T04:32:26.932Z,1001.40
2024-02-14T04:33:26.922Z,1001.36
2024-02-14T04:34:26.901Z,1001.44
2024-02-14T04:35:26.804Z,1001.46
2024-02-14T04:36:26.752Z,1001.48
2024-02-14T04:37:26.776Z,1001.44
2024-02-14T04:38:26.688Z,1001.44
2024-02-14T04:39:26.773Z,1001.44
2024-02-14T04:40:26.695Z,1001.47
2024-02-14T04:41:26.686Z,1001.47
2024-02-14T04:42:26.784Z,1001.45
2024-02-14T04:43:26.669Z,1001.41
2024-02-14T04:44:26.670Z,1001.49
2024-02-14T04:45:26.664Z,1001.49
2024-02-14T04:46:26.627Z,1001.48
2024-02-14T04:47:26.634Z,1001.49
2024-02-14T04:48:26.711Z,1001.50
2024-02-14T04:49:26.632Z,1001.51
2024-02-14T04:50:26.639Z,1001.53
2024-02-14T04:51:26.628Z,1001.51
2024-02-14T04:52:26.561Z,1001.52
2024-02-14T04:53:26.687Z,1001.48
2024-02-14T04:54:26.545Z,1001.52
2024-02-14T04:55:26.562Z,1001.54
2024-02-14T04:56:26.526Z,1001.57
2024-02-14T04:57:26.684Z,1001.59
2024-02-14T04:58:26.498Z,1001.59
2024-02-14T04:59:26.609Z,1001.62
2024-02-14T05:00:26.621Z,1001.55
2024-02-14T05:01:26.530Z,1001.56
2024-02-14T05:02:26.497Z,1001.57
2024-02-14T05:03:26.503Z,1001.60
2024-02-14T05:04:26.436Z,1001.60
2024-02-14T05:05:26.572Z,1001.59
2024-02-14T05:06:26.534Z,1001.63
2024-02-14T05:07:26.410Z,1001.63
2024-02-14T05:08:26.440Z,1001.63
2024-02-14T05:09:26.383Z,1001.62
2024-02-14T05:10:26.403Z,1001.68
2024-02-14T05:11:26.428Z,1001.69
2024-02-14T05:12:26.360Z,1001.64
2024-02-14T05:13:26.397Z,1001.66
2024-02-14T05:14:26.430Z,1001.67
2024-02-14T05:15:26.389Z,1001.66
2024-02-14T05:16:26.331Z,1001.72
2024-02-14T05:17:26.390Z,1001.70
2024-02-14T05:18:26.433Z,1001.69
2024-02-14T05:19:26.443Z,1001.70
2024-02-14T05:20:26.430Z,1001.70
2024-02-14T05:21:26.261Z,1001.71
2024-02-14T05:22:26.279Z,1001.70
2024-02-14T05:23:26.366Z,1001.70
2024-02-14T05:24:26.249Z,1001.73
2024-02-14T05:25:26.224Z,1001.72
2024-02-14T05:26:26.219Z,1001.73
2024-02-14T05:27:26.198Z,1001.74
2024-02-14T05:28:26.197Z,1001.72
2024-02-14T05:29:26.210Z,1001.73
2024-02-14T05:30:26.189Z,1001.75
2024-02-14T05:31:26.144Z,1001.74
2024-02-14T05:32:26.178Z,1001.75
2024-02-14T05:33:26.575Z,1001.77
2024-02-14T05:34:26.337Z,1001.76
2024-02-14T05:35:26.179Z,1001.78
2024-02-14T05:36:26.117Z,1001.80
2024-02-14T05:37:26.128Z,1001.75
2024-02-14T05:38:26.079Z,1001.77
2024-02-14T05:39:26.109Z,1001.78
2024-02-14T05:40:26.115Z,1001.83
2024-02-14T05:41:26.076Z,1001.79
2024-02-14T05:42:26.023Z,1001.83
2024-02-14T05:43:26.021Z,1001.83
2024-02-14T05:44:26.044Z,1001.83
2024-02-14T05:45:26.005Z,1001.86
2024-02-14T05:46:25.995Z,1001.88
2024-02-14T05:47:26.026Z,1001.85
2024-02-14T05:48:26.160Z,1001.90
2024-02-14T05:49:26.172Z,1001.90
2024-02-14T05:50:26.192Z,1001.92
2024-02-14T05:51:25.954Z,1001.91
2024-02-14T05:52:25.917Z,1001.92
2024-02-14T05:53:25.912Z,1001.95
2024-02-14T05:54:25.910Z,1001.95
2024-02-14T05:55:25.928Z,1001.98
2024-02-14T05:56:25.889Z,1001.98
2024-02-14T05:57:25.876Z,1002.01
2024-02-14T05:58:25.856Z,1001.98
2024-02-14T05:59:25.880Z,1002.02
2024-02-14T06:02:09.002Z,1002.06
2024-02-14T06:04:23.959Z,1002.02
2024-02-14T06:05:24.990Z,1002.09
2024-02-14T06:06:25.125Z,1002.11
2024-02-14T06:07:24.965Z,1002.08
2024-02-14T06:08:24.925Z,1002.10
2024-02-14T06:09:24.911Z,1002.05
2024-02-14T06:10:24.910Z,1002.05
2024-02-14T06:11:24.896Z,1002.08
2024-02-14T06:12:24.871Z,1002.09
2024-02-14T06:13:24.852Z,1002.17
2024-02-14T06:14:24.870Z,1002.14
2024-02-14T06:15:24.850Z,1002.09
2024-02-14T06:16:24.846Z,1002.14
2024-02-14T06:17:24.828Z,1002.12
2024-02-14T06:18:24.921Z,1002.12
2024-02-14T06:19:24.825Z,1002.16
2024-02-14T06:20:24.847Z,1002.18
2024-02-14T06:21:24.830Z,1002.16
2024-02-14T06:22:24.760Z,1002.18
2024-02-14T06:23:24.754Z,1002.19
2024-02-14T06:24:24.772Z,1002.19
2024-02-14T06:25:24.736Z,1002.20
2024-02-14T06:26:24.784Z,1002.22
2024-02-14T06:27:24.703Z,1002.17
2024-02-14T06:28:24.703Z,1002.23
2024-02-14T06:29:25.255Z,1002.21
2024-02-14T06:30:25.767Z,1002.23
2024-02-14T06:31:24.642Z,1002.25
2024-02-14T06:32:24.661Z,1002.22
2024-02-14T06:33:24.950Z,1002.23
2024-02-14T06:34:24.869Z,1002.24
2024-02-14T06:35:24.767Z,1002.21
2024-02-14T06:36:24.605Z,1002.27
2024-02-14T06:37:24.545Z,1002.26
2024-02-14T06:38:24.558Z,1002.30
2024-02-14T06:39:24.567Z,1002.30
2024-02-14T06:40:24.533Z,1002.27
2024-02-14T06:41:24.508Z,1002.30
2024-02-14T06:42:24.513Z,1002.35
2024-02-14T06:43:24.541Z,1002.37
2024-02-14T06:44:24.474Z,1002.33
2024-02-14T06:45:24.474Z,1002.32
2024-02-14T06:46:24.454Z,1002.34
2024-02-14T06:47:24.492Z,1002.40
2024-02-14T06:48:24.662Z,1002.40
2024-02-14T06:49:24.555Z,1002.37
2024-02-14T06:50:24.417Z,1002.38
2024-02-14T06:51:24.410Z,1002.35
2024-02-14T06:52:24.396Z,1002.33
2024-02-14T06:53:24.390Z,1002.40
2024-02-14T06:54:24.404Z,1002.44
2024-02-14T06:55:24.353Z,1002.48
2024-02-14T06:56:24.348Z,1002.39
2024-02-14T06:57:24.360Z,1002.39
2024-02-14T06:58:24.331Z,1002.42
2024-02-14T06:59:24.357Z,1002.44
2024-02-14T07:00:24.312Z,1002.53
2024-02-14T07:01:24.306Z,1002.50
2024-02-14T07:02:24.324Z,1002.53
2024-02-14T07:03:24.343Z,1002.61
2024-02-14T07:04:24.285Z,1002.57
2024-02-14T07:05:24.267Z,1002.58
2024-02-14T07:06:24.428Z,1002.58
2024-02-14T07:07:24.220Z,1002.53
2024-02-14T07:08:24.228Z,1002.55
2024-02-14T07:09:24.239Z,1002.57
2024-02-14T07:10:24.223Z,1002.64
2024-02-14T07:11:24.198Z,1002.64
2024-02-14T07:12:24.257Z,1002.67
2024-02-14T07:13:24.182Z,1002.64
2024-02-14T07:14:24.156Z,1002.66
2024-02-14T07:15:24.226Z,1002.67
2024-02-14T07:16:24.146Z,1002.66
2024-02-14T07:17:24.159Z,1002.63
2024-02-14T07:18:24.252Z,1002.67
2024-02-14T07:19:24.273Z,1002.60
2024-02-14T07:20:24.094Z,1002.65
2024-02-14T07:21:24.106Z,1002.60
2024-02-14T07:22:24.096Z,1002.70
2024-02-14T07:23:24.084Z,1002.73
2024-02-14T07:24:24.071Z,1002.66
2024-02-14T07:25:24.060Z,1002.70
2024-02-14T07:26:24.037Z,1002.74
2024-02-14T07:27:24.063Z,1002.65
2024-02-14T07:28:24.009Z,1002.73
2024-02-14T07:29:24.045Z,1002.74
2024-02-14T07:30:24.086Z,1002.73
2024-02-14T07:31:23.997Z,1002.77
2024-02-14T07:32:23.987Z,1002.64
2024-02-14T07:33:24.055Z,1002.67
2024-02-14T07:34:24.039Z,1002.78
2024-02-14T07:35:23.933Z,1002.73
2024-02-14T07:36:23.943Z,1002.77
2024-02-14T07:37:23.914Z,1002.81
2024-02-14T07:38:23.896Z,1002.78
2024-02-14T07:39:23.903Z,1002.84
2024-02-14T07:40:23.893Z,1002.80
2024-02-14T07:41:23.887Z,1002.79
2024-02-14T07:42:23.897Z,1002.81
2024-02-14T07:43:23.850Z,1002.80
2024-02-14T07:44:23.858Z,1002.84
2024-02-14T07:45:23.836Z,1002.86
2024-02-14T07:46:23.825Z,1002.84
2024-02-14T07:47:23.843Z,1002.85
2024-02-14T07:48:23.924Z,1002.89
2024-02-14T07:49:23.849Z,1002.87
2024-02-14T07:50:23.860Z,1002.89
2024-02-14T07:51:23.789Z,1002.92
2024-02-14T07:52:23.760Z,1002.95
2024-02-14T07:53:23.759Z,1002.96
2024-02-14T07:54:23.742Z,1002.98
2024-02-14T07:55:23.747Z,1002.98
2024-02-14T07:56:23.740Z,1003.00
2024-02-14T07:57:23.860Z,1002.98
2024-02-14T07:58:23.724Z,1003.00
2024-02-14T07:59:23.678Z,1002.96
2024-02-14T08:00:24.218Z,1002.99
2024-02-14T08:01:23.677Z,1002.98
2024-02-14T08:02:23.649Z,1002.97
2024-02-14T08:03:23.646Z,1002.94
2024-02-14T08:04:23.769Z,1002.92
2024-02-14T08:05:23.618Z,1002.92
2024-02-14T08:06:23.682Z,1002.88
2024-02-14T08:07:23.601Z,1002.94
2024-02-14T08:08:23.615Z,1002.94
2024-02-14T08:09:23.579Z,1002.95
2024-02-14T08:10:23.582Z,1002.97
2024-02-14T08:11:23.558Z,1002.99
2024-02-14T08:12:23.570Z,1002.97
2024-02-14T08:13:23.540Z,1002.94
2024-02-14T08:14:23.544Z,1002.96
2024-02-14T08:15:23.513Z,1002.98
2024-02-14T08:16:23.493Z,1002.97
2024-02-14T08:17:23.589Z,1003.00
2024-02-14T08:18:23.573Z,1003.03
2024-02-14T08:19:23.632Z,1002.99
2024-02-14T08:20:23.537Z,1003.02
2024-02-14T08:21:24.037Z,1003.02
2024-02-14T08:22:23.425Z,1003.05
2024-02-14T08:23:23.449Z,1003.03
2024-02-14T08:24:23.471Z,1003.03
2024-02-14T08:25:23.410Z,1003.05
2024-02-14T08:26:23.403Z,1003.02
2024-02-14T08:27:23.566Z,1003.05
2024-02-14T08:28:23.374Z,1003.08
2024-02-14T08:29:23.371Z,1003.07
2024-02-14T08:30:23.393Z,1003.08
2024-02-14T08:31:23.433Z,1003.12
2024-02-14T08:32:25.129Z,1003.13
2024-02-14T08:33:23.437Z,1003.12
2024-02-14T08:34:23.499Z,1003.10
2024-02-14T08:35:23.311Z,1003.14
2024-02-14T08:36:23.329Z,1003.12
2024-02-14T08:37:23.275Z,1003.11
2024-02-14T08:38:23.289Z,1003.12
2024-02-14T08:39:23.257Z,1003.16
2024-02-14T08:40:23.279Z,1003.18
2024-02-14T08:41:23.266Z,1003.17
2024-02-14T08:42:23.228Z,1003.21
2024-02-14T08:43:23.212Z,1003.14
2024-02-14T08:44:23.216Z,1003.13
2024-02-14T08:45:23.195Z,1003.21
2024-02-14T08:46:23.209Z,1003.14
2024-02-14T08:47:23.185Z,1003.14
2024-02-14T08:48:23.299Z,1003.16
2024-02-14T08:49:23.305Z,1003.20
2024-02-14T08:50:23.211Z,1003.23
2024-02-14T08:51:23.140Z,1003.21
2024-02-14T08:52:23.133Z,1003.18
2024-02-14T08:53:23.109Z,1003.15
2024-02-14T08:54:23.805Z,1003.16
2024-02-14T08:55:23.107Z,1003.21
2024-02-14T08:56:23.176Z,1003.22
2024-02-14T08:57:23.071Z,1003.23
2024-02-14T08:58:23.783Z,1003.26
2024-02-14T08:59:23.049Z,1003.28
2024-02-14T09:00:23.289Z,1003.30
2024-02-14T09:01:23.176Z,1003.29
2024-02-14T09:02:23.680Z,1003.28
2024-02-14T09:03:23.194Z,1003.26
2024-02-14T09:04:23.134Z,1003.24
2024-02-14T09:05:23.016Z,1003.32
2024-02-14T09:06:23.066Z,1003.34
2024-02-14T09:07:22.983Z,1003.36
2024-02-14T09:08:22.965Z,1003.38
2024-02-14T09:09:22.981Z,1003.38
2024-02-14T09:10:22.969Z,1003.35
2024-02-14T09:11:22.954Z,1003.35
2024-02-14T09:12:22.963Z,1003.40
2024-02-14T09:13:22.905Z,1003.38
2024-02-14T09:14:22.884Z,1003.41
2024-02-14T09:15:22.905Z,1003.42
2024-02-14T09:16:22.893Z,1003.39
2024-02-14T09:17:22.884Z,1003.40
2024-02-14T09:18:22.923Z,1003.43
2024-02-14T09:19:22.997Z,1003.42
2024-02-14T09:20:22.945Z,1003.43
2024-02-14T09:21:22.964Z,1003.46
2024-02-14T09:22:22.801Z,1003.45
2024-02-14T09:23:22.821Z,1003.45
2024-02-14T09:24:22.855Z,1003.46
2024-02-14T09:25:22.773Z,1003.33
2024-02-14T09:26:22.790Z,1003.41
2024-02-14T09:27:22.868Z,1003.41
2024-02-14T09:28:22.741Z,1003.43
2024-02-14T09:29:22.735Z,1003.44
2024-02-14T09:30:31.633Z,1003.43
2024-02-14T09:31:22.712Z,1003.44
2024-02-14T09:32:22.723Z,1003.43
2024-02-14T09:33:22.869Z,1003.41
2024-02-14T09:34:22.813Z,1003.45
2024-02-14T09:35:22.661Z,1003.46
2024-02-14T09:36:22.776Z,1003.46
2024-02-14T09:37:22.646Z,1003.45
2024-02-14T09:38:22.679Z,1003.52
2024-02-14T09:39:22.650Z,1003.49
2024-02-14T09:40:22.616Z,1003.51
2024-02-14T09:41:22.610Z,1003.52
2024-02-14T09:42:22.609Z,1003.51
2024-02-14T09:43:22.593Z,1003.52
2024-02-14T09:44:22.572Z,1003.55
2024-02-14T09:45:25.754Z,1003.56
2024-02-14T09:46:22.564Z,1003.55
2024-02-14T09:47:22.590Z,1003.57
2024-02-14T09:48:23.505Z,1003.60
2024-02-14T09:49:22.693Z,1003.57
2024-02-14T09:50:22.508Z,1003.56
2024-02-14T09:51:22.544Z,1003.54
2024-02-14T09:52:22.486Z,1003.56
2024-02-14T09:53:22.474Z,1003.58
2024-02-14T09:54:22.537Z,1003.56
2024-02-14T09:55:22.479Z,1003.58
2024-02-14T09:56:22.440Z,1003.56
2024-02-14T09:57:22.463Z,1003.58
2024-02-14T09:58:22.420Z,1003.56
2024-02-14T09:59:22.425Z,1003.59
2024-02-14T10:00:22.466Z,1003.59
2024-02-14T10:01:22.410Z,1003.60
2024-02-14T10:02:22.386Z,1003.60
2024-02-14T10:03:22.379Z,1003.59
2024-02-14T10:04:25.416Z,1003.61
2024-02-14T10:05:22.373Z,1003.62
2024-02-14T10:06:22.457Z,1003.64
2024-02-14T10:07:22.395Z,1003.64
2024-02-14T10:08:22.320Z,1003.71
2024-02-14T10:09:22.317Z,1003.70
2024-02-14T10:10:22.312Z,1003.73
2024-02-14T10:11:22.320Z,1003.74
2024-02-14T10:12:22.309Z,1003.73
2024-02-14T10:13:22.286Z,1003.79
2024-02-14T10:14:22.264Z,1003.80
2024-02-14T10:15:22.288Z,1003.81
2024-02-14T10:16:25.057Z,1003.79
2024-02-14T10:17:22.228Z,1003.84
2024-02-14T10:18:22.298Z,1003.81
2024-02-14T10:19:22.344Z,1003.82
2024-02-14T10:20:22.217Z,1003.81
2024-02-14T10:21:22.279Z,1003.83
2024-02-14T10:22:22.188Z,1003.82
2024-02-14T10:23:22.186Z,1003.77
2024-02-14T10:24:22.189Z,1003.81
2024-02-14T10:25:22.179Z,1003.80
2024-02-14T10:26:22.160Z,1003.82
2024-02-14T10:27:22.207Z,1003.84
2024-02-14T10:28:27.198Z,1003.84
2024-02-14T10:29:22.121Z,1003.84
2024-02-14T10:30:22.104Z,1003.82
2024-02-14T10:31:22.087Z,1003.83
2024-02-14T10:32:22.081Z,1003.81
2024-02-14T10:33:27.800Z,1003.85
2024-02-14T10:34:22.225Z,1003.86
2024-02-14T10:35:22.124Z,1003.86
2024-02-14T10:36:22.060Z,1003.84
2024-02-14T10:37:22.018Z,1003.86
2024-02-14T10:38:22.016Z,1003.86
2024-02-14T10:39:22.007Z,1003.85
2024-02-14T10:40:21.999Z,1003.86
2024-02-14T10:41:21.987Z,1003.85
2024-02-14T10:42:21.963Z,1003.83
2024-02-14T10:43:21.981Z,1003.82
2024-02-14T10:44:21.959Z,1003.86
2024-02-14T10:45:21.972Z,1003.79
2024-02-14T10:46:21.957Z,1003.83
2024-02-14T10:47:21.919Z,1003.88
2024-02-14T10:48:23.887Z,1003.88
2024-02-14T10:49:22.446Z,1003.87
2024-02-14T10:50:21.889Z,1003.87
2024-02-14T10:51:21.892Z,1003.90
2024-02-14T10:52:21.884Z,1003.92
2024-02-14T10:53:21.866Z,1003.90
2024-02-14T10:54:21.895Z,1003.92
2024-02-14T10:55:21.828Z,1003.94
2024-02-14T10:56:21.853Z,1003.94
2024-02-14T10:57:21.851Z,1003.96
2024-02-14T10:58:21.804Z,1003.96
2024-02-14T10:59:21.824Z,1003.99
2024-02-14T11:00:21.823Z,1004.00
2024-02-14T11:01:21.947Z,1004.02
2024-02-14T11:02:23.328Z,1004.04
2024-02-14T11:03:21.850Z,1004.01
2024-02-14T11:04:21.860Z,1004.01
2024-02-14T11:05:21.735Z,1003.97
2024-02-14T11:06:21.844Z,1003.98
2024-02-14T11:07:21.744Z,1004.01
2024-02-14T11:08:21.712Z,1003.96
2024-02-14T11:09:21.760Z,1004.01
2024-02-14T11:10:21.773Z,1003.97
2024-02-14T11:11:21.665Z,1003.96
2024-02-14T11:12:21.889Z,1003.98
2024-02-14T11:13:21.641Z,1003.96
2024-02-14T11:14:21.626Z,1003.98
2024-02-14T11:15:21.657Z,1003.95
2024-02-14T11:16:21.606Z,1003.94
2024-02-14T11:17:21.610Z,1003.92
2024-02-14T11:18:21.700Z,1003.90
2024-02-14T11:19:21.872Z,1003.94
2024-02-14T11:20:21.705Z,1003.92
2024-02-14T11:21:21.698Z,1003.93
2024-02-14T11:22:21.556Z,1003.94
2024-02-14T11:23:21.916Z,1003.90
2024-02-14T11:24:21.559Z,1003.93
2024-02-14T11:25:21.518Z,1003.93
2024-02-14T11:26:21.524Z,1003.91
2024-02-14T11:27:33.088Z,1003.90
2024-02-14T11:28:21.503Z,1003.90
2024-02-14T11:29:24.134Z,1003.88
2024-02-14T11:30:21.480Z,1003.90
2024-02-14T11:31:21.476Z,1003.92
2024-02-14T11:32:21.447Z,1003.88
2024-02-14T11:33:21.811Z,1003.89
2024-02-14T11:34:21.475Z,1003.96
2024-02-14T11:35:21.477Z,1003.96
2024-02-14T11:36:21.461Z,1003.95
2024-02-14T11:37:21.394Z,1003.94
2024-02-14T11:38:21.380Z,1003.96
2024-02-14T11:39:21.392Z,1003.95
2024-02-14T11:40:21.351Z,1003.93
2024-02-14T11:41:21.376Z,1003.95
2024-02-14T11:42:22.537Z,1003.93
2024-02-14T11:43:21.336Z,1003.90
2024-02-14T11:44:21.368Z,1003.88
2024-02-14T11:45:21.404Z,1003.90
2024-02-14T11:46:21.301Z,1003.86
2024-02-14T11:47:21.313Z,1003.87
2024-02-14T11:48:21.437Z,1003.89
2024-02-14T11:49:21.334Z,1003.90
2024-02-14T11:50:21.288Z,1003.87
2024-02-14T11:51:21.252Z,1003.88
2024-02-14T11:52:21.879Z,1003.88
2024-02-14T11:53:21.220Z,1003.87
2024-02-14T11:54:21.287Z,1003.88
2024-02-14T11:55:21.480Z,1003.91
2024-02-14T11:56:21.208Z,1003.91
2024-02-14T11:57:21.241Z,1003.88
2024-02-14T11:58:21.158Z,1003.89
2024-02-14T11:59:21.496Z,1003.88
2024-02-14T12:00:21.191Z,1003.89
2024-02-14T12:01:21.138Z,1003.87
2024-02-14T12:02:21.120Z,1003.90
2024-02-14T12:03:21.138Z,1003.91
2024-02-14T12:04:21.204Z,1003.90
2024-02-14T12:05:21.181Z,1003.87
2024-02-14T12:06:21.194Z,1003.85
2024-02-14T12:07:21.201Z,1003.84
2024-02-14T12:08:21.253Z,1003.83